Stations météo

réclame
Mon MeteoGroup
East malling, Grande-Bretagne (99008): Température de l'air & dewpoint: 16.09.2020 16:00:00 - 22.09.2020 16:00:00 (BST)East malling, Grande-Bretagne (99008): Température de l'air -20cm: 16.09.2020 16:00:00 - 22.09.2020 16:00:00 (BST)East malling, Grande-Bretagne (99008): Vitesse du vent: 16.09.2020 16:00:00 - 22.09.2020 16:00:00 (BST)East malling, Grande-Bretagne (99008): Direction du vent: 16.09.2020 16:00:00 - 22.09.2020 16:00:00 (BST)East malling, Grande-Bretagne (99008): reduced air pressure: 16.09.2020 16:00:00 - 22.09.2020 16:00:00 (BST)East malling, Grande-Bretagne (99008): Ensoleillement: 16.09.2020 16:00:00 - 22.09.2020 16:00:00 (BST)East malling, Grande-Bretagne (99008): Quantités de précipitations: 16.09.2020 16:00:00 - 22.09.2020 16:00:00 (BST)
Date & Time tt [°C] td [°C] tt -20cm [°C] ff [km/h] ff [knt] dd ppp [hPa] sd [min] rr [mm]
22.09.2020 16:00:00 23,7 7,9 - 18 10 SW 1007,6 60 -
22.09.2020 15:00:00 23,9 11,2 - 16 9 SW 1008,3 60 0,0
22.09.2020 14:00:00 23,6 12,3 - 15 8 SW 1009,0 48 0,0
22.09.2020 13:00:00 23,1 12,1 - 15 8 SW 1009,6 36 0,0
22.09.2020 12:00:00 22,0 12,2 - 9 5 SSW 1010,5 60 0,0
22.09.2020 11:00:00 20,0 12,4 - 9 5 SSW 1011,3 60 0,0
22.09.2020 10:00:00 17,9 13,1 16,5 5 3 S 1011,8 60 0,0
22.09.2020 09:00:00 14,6 12,8 - 5 3 S 1012,1 60 0,0
22.09.2020 08:00:00 11,4 11,3 - 4 2 WSW 1012,3 18 0,0
22.09.2020 07:00:00 10,6 10,6 - 5 3 SSE 1012,3 0 0,0
22.09.2020 06:00:00 9,5 9,3 - 2 1 SSW 1012,6 0 0,0
22.09.2020 05:00:00 9,1 8,8 - 2 1 SSE 1013,0 0 0,0
22.09.2020 04:00:00 9,6 9,3 - 2 1 S 1013,4 0 0,0
22.09.2020 03:00:00 10,0 9,6 - 4 2 SSE 1013,8 0 0,0
22.09.2020 02:00:00 10,4 10,0 - 4 2 WNW 1014,7 0 0,0
22.09.2020 01:00:00 10,5 10,0 - 4 2 W 1015,1 - 0,0
22.09.2020 00:00:00 11,3 10,6 - 4 2 S 1015,4 0 0,0
21.09.2020 23:00:00 11,1 10,0 - 4 2 W 1015,7 0 0,0
21.09.2020 22:00:00 11,5 9,6 - 4 2 S 1015,8 0 0,0
21.09.2020 21:00:00 12,7 9,3 - 2 1 SSW 1015,8 0 0,0
21.09.2020 20:00:00 13,9 8,7 - 2 1 W 1015,9 0 0,0
21.09.2020 19:00:00 17,2 10,0 - 5 3 S 1015,7 42 0,0
21.09.2020 18:00:00 21,6 6,7 - 2 1 S 1015,6 60 0,0
21.09.2020 17:00:00 22,3 6,4 - 4 2 E 1015,9 60 0,0
21.09.2020 16:00:00 22,0 8,6 - 8 4 N 1016,5 60 0,0
21.09.2020 15:00:00 21,6 11,7 - 5 3 NNW 1016,9 60 0,0
21.09.2020 14:00:00 19,6 12,6 - 4 2 ENE 1017,4 60 0,0
21.09.2020 13:00:00 18,3 13,8 - 9 5 N 1018,0 60 0,0
21.09.2020 12:00:00 16,4 13,8 - 9 5 N 1018,4 6 -
21.09.2020 11:00:00 14,2 13,2 - 11 6 N 1018,8 0 0,0
21.09.2020 10:00:00 13,4 13,2 - 8 4 NNE 1018,8 0 0,0
21.09.2020 09:00:00 13,3 13,1 - 8 4 NNE 1018,6 0 0,0
21.09.2020 08:00:00 13,2 12,9 - 8 4 NE 1018,4 0 0,0
21.09.2020 07:00:00 13,3 12,9 - 8 4 NE 1018,1 0 0,0
21.09.2020 06:00:00 13,2 12,5 - 5 3 N 1018,2 0 0,0
21.09.2020 05:00:00 13,8 13,0 - 8 4 N 1018,4 0 0,0
21.09.2020 04:00:00 14,0 12,9 - 9 5 N 1018,3 0 0,0
21.09.2020 03:00:00 14,4 13,2 - 8 4 N 1018,6 0 0,0
21.09.2020 02:00:00 14,3 13,1 - 9 5 N 1018,9 0 0,0
21.09.2020 01:00:00 14,3 12,7 - 9 5 NNE 1019,0 - 0,0
21.09.2020 00:00:00 15,1 13,2 - 9 5 N 1019,2 0 0,0
20.09.2020 23:00:00 15,6 13,4 - 9 5 NNE 1019,1 0 0,0
20.09.2020 22:00:00 16,1 13,8 - 15 8 NE 1019,3 0 0,0
20.09.2020 21:00:00 16,2 13,7 - 15 8 NE 1019,2 0 0,0
20.09.2020 20:00:00 16,6 12,3 - 9 5 NE 1019,2 0 0,0
20.09.2020 19:00:00 17,9 9,7 - 13 7 ENE 1018,8 30 0,0
20.09.2020 18:00:00 18,9 10,0 - 11 6 ENE 1018,4 54 0,0
20.09.2020 17:00:00 19,4 11,5 - 13 7 ENE 1018,3 42 0,0
20.09.2020 16:00:00 20,3 13,0 - 16 9 ENE 1018,3 60 0,0
20.09.2020 15:00:00 20,6 13,2 - 22 12 NE 1018,2 60 -
20.09.2020 14:00:00 20,6 12,8 - 21 11 NE 1018,6 60 0,0
20.09.2020 13:00:00 21,7 13,3 - 21 11 NE 1018,5 60 0,0
20.09.2020 12:00:00 20,9 13,8 - 18 10 ENE 1018,7 60 0,0
20.09.2020 11:00:00 19,4 14,2 - 15 8 NE 1018,9 36 0,0
20.09.2020 10:00:00 17,9 13,8 - 13 7 NNE 1018,7 30 0,0
20.09.2020 09:00:00 16,6 13,9 - 9 5 N 1018,3 0 0,0
20.09.2020 08:00:00 15,4 13,4 - 13 7 W 1017,6 0 0,0
20.09.2020 07:00:00 15,0 13,3 - 13 7 WNW 1017,6 0 0,0
20.09.2020 06:00:00 14,7 13,1 - 16 9 NNE 1017,2 0 0,0
20.09.2020 05:00:00 14,9 13,2 - 18 10 NNE 1017,1 0 0,0
20.09.2020 04:00:00 15,1 13,3 - 18 10 NNE 1017,1 0 0,0
20.09.2020 03:00:00 15,3 13,4 - 15 8 NNE 1017,3 0 0,0
20.09.2020 02:00:00 15,1 13,2 - 15 8 N 1017,2 0 0,0
20.09.2020 01:00:00 15,3 13,0 - 16 9 N 1017,3 - 0,0
20.09.2020 00:00:00 15,7 12,9 - 16 9 NNE 1017,3 0 0,0
19.09.2020 23:00:00 16,1 12,9 - 13 7 N 1017,5 0 -
19.09.2020 22:00:00 16,3 12,8 - 5 3 NNW 1017,4 0 0,0
19.09.2020 21:00:00 16,5 13,3 - 15 8 N 1017,2 0 0,0
19.09.2020 20:00:00 16,8 13,8 - 13 7 NE 1016,9 0 0,0
19.09.2020 19:00:00 17,3 13,3 - 13 7 ENE 1016,6 6 0,0
19.09.2020 18:00:00 18,0 13,3 - 15 8 NE 1016,0 42 0,0
19.09.2020 17:00:00 18,7 12,7 - 22 12 ENE 1016,0 18 0,0
19.09.2020 16:00:00 19,3 12,3 - 24 13 ENE 1016,2 60 0,0
19.09.2020 15:00:00 20,3 13,4 - 21 11 ENE 1016,4 60 0,0
19.09.2020 14:00:00 19,9 12,9 - 21 11 ENE 1016,6 36 0,0
19.09.2020 13:00:00 19,7 12,7 - 22 12 ENE 1016,7 24 0,0
19.09.2020 12:00:00 20,1 12,9 - 24 13 NE 1016,7 60 0,0
19.09.2020 11:00:00 19,9 12,8 - 21 11 NE 1017,2 60 0,0
19.09.2020 10:00:00 19,1 13,1 16,9 22 12 ENE 1017,3 60 0,0
19.09.2020 09:00:00 17,4 14,2 - 18 10 NE 1016,5 60 0,0
19.09.2020 08:00:00 15,9 13,8 - 15 8 NNE 1016,8 18 0,0
19.09.2020 07:00:00 15,1 13,3 - 13 7 NNE 1017,0 0 0,0
19.09.2020 06:00:00 15,1 13,0 - 11 6 NNE 1017,1 0 0,0
19.09.2020 05:00:00 16,1 13,3 - 13 7 ENE 1017,2 0 0,0
19.09.2020 04:00:00 16,3 13,0 - 16 9 ENE 1017,3 0 0,0
19.09.2020 03:00:00 16,5 12,6 - 11 6 NE 1017,8 0 0,0
19.09.2020 02:00:00 16,7 13,2 - 9 5 NE 1018,5 0 0,0
19.09.2020 01:00:00 15,7 13,2 - 9 5 NNE 1019,1 - 0,0
19.09.2020 00:00:00 15,9 13,3 - 11 6 NE 1019,9 0 0,0
18.09.2020 23:00:00 16,0 13,0 - 13 7 NE 1020,4 0 0,0
18.09.2020 22:00:00 16,6 13,0 - 16 9 ENE 1020,5 0 0,0
18.09.2020 21:00:00 16,3 13,0 - 9 5 NE 1020,4 0 0,0
18.09.2020 20:00:00 16,4 12,7 - 15 8 NE 1020,3 0 0,0
18.09.2020 19:00:00 16,4 12,3 - 15 8 NE 1019,9 24 0,0
18.09.2020 18:00:00 17,4 12,4 - 21 11 NE 1020,3 24 0,0
18.09.2020 17:00:00 17,3 11,5 - 22 12 NE 1021,0 42 0,0
18.09.2020 16:00:00 18,3 10,6 - 22 12 ENE 1021,1 60 0,0
18.09.2020 15:00:00 19,0 9,7 - 24 13 ENE 1021,3 60 0,0
18.09.2020 14:00:00 19,0 9,2 - 24 13 NE 1021,9 60 0,0
18.09.2020 13:00:00 19,0 8,9 - 24 13 E 1022,6 60 0,0
18.09.2020 12:00:00 18,4 9,1 - 24 13 ENE 1023,0 60 0,0
18.09.2020 11:00:00 18,4 8,7 - 24 13 E 1023,7 54 0,0
18.09.2020 10:00:00 18,1 11,7 16,2 16 9 ENE 1023,4 60 0,0
18.09.2020 09:00:00 14,4 11,7 - 9 5 NNE 1023,1 60 0,0
18.09.2020 08:00:00 11,5 10,2 - 8 4 N 1023,4 42 0,0
18.09.2020 07:00:00 9,3 8,5 - 5 3 NNE 1023,8 0 0,0
18.09.2020 06:00:00 8,0 7,7 - 8 4 NE 1023,6 0 0,0
18.09.2020 05:00:00 7,0 6,2 - 2 1 SSE 1023,9 0 0,0
18.09.2020 04:00:00 8,1 7,2 - 2 1 SE 1024,3 0 0,0
18.09.2020 03:00:00 8,3 7,0 - 5 3 NE 1024,7 0 -
18.09.2020 02:00:00 10,7 8,4 - 8 4 ENE 1025,0 0 0,0
18.09.2020 01:00:00 10,2 8,2 - 4 2 NE 1025,5 - 0,0
18.09.2020 00:00:00 13,6 9,0 - 8 4 ENE 1026,1 0 0,0
17.09.2020 23:00:00 14,1 9,0 - 8 4 ENE 1026,3 0 0,0
17.09.2020 22:00:00 14,4 8,9 - 11 6 E 1026,5 0 0,0
17.09.2020 21:00:00 14,9 8,9 - 15 8 E 1026,7 0 0,0
17.09.2020 20:00:00 15,1 9,3 - 18 10 ENE 1026,5 0 0,0
17.09.2020 19:00:00 15,5 9,6 - 16 9 ENE 1026,5 24 0,0
17.09.2020 18:00:00 16,5 9,7 - 18 10 ENE 1026,7 60 -
17.09.2020 17:00:00 17,4 10,2 - 24 13 ENE 1026,8 60 -
17.09.2020 16:00:00 18,0 9,7 - 24 13 E 1027,1 60 0,0
17.09.2020 15:00:00 18,8 8,9 - 24 13 NE 1027,7 48 0,0
17.09.2020 14:00:00 18,5 11,2 - 21 11 ENE 1028,3 48 0,0
17.09.2020 13:00:00 18,4 9,6 - 24 13 ENE 1028,9 54 0,0
17.09.2020 12:00:00 18,5 9,4 - 26 14 E 1028,9 60 0,0
17.09.2020 11:00:00 18,4 10,4 - 24 13 E 1029,0 60 0,0
17.09.2020 10:00:00 16,8 10,4 17,9 26 14 ENE 1029,1 24 0,0
17.09.2020 09:00:00 14,9 11,6 - 9 5 NNE 1029,1 0 0,0
17.09.2020 08:00:00 13,8 11,2 - 11 6 NNE 1029,0 0 0,0
17.09.2020 07:00:00 13,0 10,9 - 11 6 NNE 1028,7 0 0,0
17.09.2020 06:00:00 13,4 11,1 - 13 7 NNE 1028,4 0 0,0
17.09.2020 05:00:00 13,8 11,1 - 13 7 NNE 1028,3 0 0,0
17.09.2020 04:00:00 14,4 11,3 - 16 9 NNE 1028,5 0 0,0
17.09.2020 03:00:00 15,0 11,4 - 18 10 NNE 1028,7 0 0,0
17.09.2020 02:00:00 15,4 12,0 - 16 9 NE 1028,9 0 0,0
17.09.2020 01:00:00 15,6 12,4 - 18 10 NE 1029,1 - 0,0
17.09.2020 00:00:00 16,0 12,8 - 16 9 NE 1028,9 0 0,0
16.09.2020 23:00:00 16,4 13,8 - 21 11 NE 1028,4 0 0,0
16.09.2020 22:00:00 16,7 14,1 - 24 13 ENE 1027,7 0 0,0
16.09.2020 21:00:00 17,2 14,4 - 21 11 ENE 1027,0 0 0,0
16.09.2020 20:00:00 17,2 14,7 - 24 13 ENE 1026,5 0 0,0
16.09.2020 19:00:00 18,5 15,1 - 22 12 ENE 1025,2 42 0,0
16.09.2020 18:00:00 21,1 13,6 - 15 8 ENE 1024,5 24 0,0
16.09.2020 17:00:00 21,1 13,3 - 16 9 ENE 1024,2 0 0,0
16.09.2020 16:00:00 22,6 12,8 - 15 8 NE 1024,1 18 0,0

tt = Température de l'air
td = dewpoint
tt -20cm = Température de l'air -20cm
ff = Vitesse du vent
dd = Direction du vent
ppp = reduced air pressure
sd = Ensoleillement
rr = Quantités de précipitations

stations d'obs. à proximité